sensor_id;sensor_type;location;lat;lon;timestamp;temperature;humidity
18721;DHT22;9489;50.948;3.114;2024-02-14T00:01:34;9.90;99.90
18721;DHT22;9489;50.948;3.114;2024-02-14T00:04:03;9.90;99.90
18721;DHT22;9489;50.948;3.114;2024-02-14T00:06:29;9.90;99.90
18721;DHT22;9489;50.948;3.114;2024-02-14T00:09:00;9.90;99.90
18721;DHT22;9489;50.948;3.114;2024-02-14T00:11:25;9.90;99.90
18721;DHT22;9489;50.948;3.114;2024-02-14T00:13:51;9.90;99.90
18721;DHT22;9489;50.948;3.114;2024-02-14T00:16:17;9.90;99.90
18721;DHT22;9489;50.948;3.114;2024-02-14T00:18:42;9.90;99.90
18721;DHT22;9489;50.948;3.114;2024-02-14T00:21:08;10.00;99.90
18721;DHT22;9489;50.948;3.114;2024-02-14T00:23:34;10.00;99.90
18721;DHT22;9489;50.948;3.114;2024-02-14T00:25:59;10.00;99.90
18721;DHT22;9489;50.948;3.114;2024-02-14T00:28:25;10.00;99.90
18721;DHT22;9489;50.948;3.114;2024-02-14T00:30:52;10.00;99.90
18721;DHT22;9489;50.948;3.114;2024-02-14T00:33:18;10.10;99.90
18721;DHT22;9489;50.948;3.114;2024-02-14T00:35:45;10.10;99.90
18721;DHT22;9489;50.948;3.114;2024-02-14T00:38:11;10.10;99.90
18721;DHT22;9489;50.948;3.114;2024-02-14T00:40:37;10.00;99.90
18721;DHT22;9489;50.948;3.114;2024-02-14T00:43:02;10.10;99.90
18721;DHT22;9489;50.948;3.114;2024-02-14T00:45:28;10.10;99.90
18721;DHT22;9489;50.948;3.114;2024-02-14T00:47:54;10.10;99.90
18721;DHT22;9489;50.948;3.114;2024-02-14T00:50:20;10.10;99.90
18721;DHT22;9489;50.948;3.114;2024-02-14T00:52:46;10.10;99.90
18721;DHT22;9489;50.948;3.114;2024-02-14T00:55:11;10.10;99.90
18721;DHT22;9489;50.948;3.114;2024-02-14T00:57:37;10.20;99.90
18721;DHT22;9489;50.948;3.114;2024-02-14T01:00:04;10.10;99.90
18721;DHT22;9489;50.948;3.114;2024-02-14T01:02:31;10.20;99.90
18721;DHT22;9489;50.948;3.114;2024-02-14T01:04:57;10.20;99.90
18721;DHT22;9489;50.948;3.114;2024-02-14T01:07:23;10.20;99.90
18721;DHT22;9489;50.948;3.114;2024-02-14T01:09:48;10.20;99.90
18721;DHT22;9489;50.948;3.114;2024-02-14T01:12:15;10.20;99.90
18721;DHT22;9489;50.948;3.114;2024-02-14T01:14:42;10.20;99.90
18721;DHT22;9489;50.948;3.114;2024-02-14T01:17:07;10.20;99.90
18721;DHT22;9489;50.948;3.114;2024-02-14T01:19:33;10.30;99.90
18721;DHT22;9489;50.948;3.114;2024-02-14T01:21:59;10.20;99.90
18721;DHT22;9489;50.948;3.114;2024-02-14T01:24:25;10.30;99.90
18721;DHT22;9489;50.948;3.114;2024-02-14T01:26:53;10.30;99.90
18721;DHT22;9489;50.948;3.114;2024-02-14T01:29:20;10.30;99.90
18721;DHT22;9489;50.948;3.114;2024-02-14T01:31:46;10.30;99.90
18721;DHT22;9489;50.948;3.114;2024-02-14T01:34:12;10.30;99.90
18721;DHT22;9489;50.948;3.114;2024-02-14T01:36:38;10.30;99.90
18721;DHT22;9489;50.948;3.114;2024-02-14T01:39:04;10.30;99.90
18721;DHT22;9489;50.948;3.114;2024-02-14T01:41:36;10.30;99.90
18721;DHT22;9489;50.948;3.114;2024-02-14T01:44:02;10.30;99.90
18721;DHT22;9489;50.948;3.114;2024-02-14T01:46:28;10.30;99.90
18721;DHT22;9489;50.948;3.114;2024-02-14T01:48:53;10.30;99.90
18721;DHT22;9489;50.948;3.114;2024-02-14T01:51:20;10.40;99.90
18721;DHT22;9489;50.948;3.114;2024-02-14T01:53:50;10.40;99.90
18721;DHT22;9489;50.948;3.114;2024-02-14T01:56:16;10.40;99.90
18721;DHT22;9489;50.948;3.114;2024-02-14T01:58:42;10.40;99.90
18721;DHT22;9489;50.948;3.114;2024-02-14T02:01:09;10.40;99.90
18721;DHT22;9489;50.948;3.114;2024-02-14T02:03:35;10.50;99.90
18721;DHT22;9489;50.948;3.114;2024-02-14T02:06:05;10.50;99.90
18721;DHT22;9489;50.948;3.114;2024-02-14T02:08:31;10.50;99.90
18721;DHT22;9489;50.948;3.114;2024-02-14T02:10:58;10.50;99.90
18721;DHT22;9489;50.948;3.114;2024-02-14T02:13:23;10.50;99.90
18721;DHT22;9489;50.948;3.114;2024-02-14T02:15:52;10.40;99.90
18721;DHT22;9489;50.948;3.114;2024-02-14T02:18:18;10.50;99.90
18721;DHT22;9489;50.948;3.114;2024-02-14T02:20:45;10.50;99.90
18721;DHT22;9489;50.948;3.114;2024-02-14T02:23:14;10.50;99.90
18721;DHT22;9489;50.948;3.114;2024-02-14T02:25:43;10.50;99.90
18721;DHT22;9489;50.948;3.114;2024-02-14T02:28:08;10.50;99.90
18721;DHT22;9489;50.948;3.114;2024-02-14T02:30:35;10.50;99.90
18721;DHT22;9489;50.948;3.114;2024-02-14T02:33:01;10.40;99.90
18721;DHT22;9489;50.948;3.114;2024-02-14T02:35:28;10.40;99.90
18721;DHT22;9489;50.948;3.114;2024-02-14T02:37:54;10.40;99.90
18721;DHT22;9489;50.948;3.114;2024-02-14T02:40:19;10.50;99.90
18721;DHT22;9489;50.948;3.114;2024-02-14T02:42:47;10.40;99.90
18721;DHT22;9489;50.948;3.114;2024-02-14T02:45:13;10.50;99.90
18721;DHT22;9489;50.948;3.114;2024-02-14T02:47:39;10.50;99.90
18721;DHT22;9489;50.948;3.114;2024-02-14T02:50:05;10.50;99.90
18721;DHT22;9489;50.948;3.114;2024-02-14T02:52:31;10.50;99.90
18721;DHT22;9489;50.948;3.114;2024-02-14T02:54:57;10.60;99.90
18721;DHT22;9489;50.948;3.114;2024-02-14T02:57:23;10.60;99.90
18721;DHT22;9489;50.948;3.114;2024-02-14T02:59:49;10.60;99.90
18721;DHT22;9489;50.948;3.114;2024-02-14T03:02:15;10.60;99.90
18721;DHT22;9489;50.948;3.114;2024-02-14T03:04:41;10.60;99.90
18721;DHT22;9489;50.948;3.114;2024-02-14T03:07:08;10.60;99.90
18721;DHT22;9489;50.948;3.114;2024-02-14T03:09:34;10.60;99.90
18721;DHT22;9489;50.948;3.114;2024-02-14T03:12:01;10.70;99.90
18721;DHT22;9489;50.948;3.114;2024-02-14T03:14:32;10.70;99.90
18721;DHT22;9489;50.948;3.114;2024-02-14T03:17:01;10.70;99.90
18721;DHT22;9489;50.948;3.114;2024-02-14T03:19:27;10.70;99.90
18721;DHT22;9489;50.948;3.114;2024-02-14T03:21:54;10.70;99.90
18721;DHT22;9489;50.948;3.114;2024-02-14T03:24:19;10.70;99.90
18721;DHT22;9489;50.948;3.114;2024-02-14T03:26:45;10.70;99.90
18721;DHT22;9489;50.948;3.114;2024-02-14T03:29:12;10.70;99.90
18721;DHT22;9489;50.948;3.114;2024-02-14T03:31:38;10.70;99.90
18721;DHT22;9489;50.948;3.114;2024-02-14T03:34:03;10.70;99.90
18721;DHT22;9489;50.948;3.114;2024-02-14T03:36:30;10.70;99.90
18721;DHT22;9489;50.948;3.114;2024-02-14T03:38:58;10.70;99.90
18721;DHT22;9489;50.948;3.114;2024-02-14T03:41:24;10.70;99.90
18721;DHT22;9489;50.948;3.114;2024-02-14T03:43:50;10.70;99.90
18721;DHT22;9489;50.948;3.114;2024-02-14T03:46:16;10.70;99.90
18721;DHT22;9489;50.948;3.114;2024-02-14T03:48:44;10.70;99.90
18721;DHT22;9489;50.948;3.114;2024-02-14T03:51:10;10.70;99.90
18721;DHT22;9489;50.948;3.114;2024-02-14T03:53:37;10.60;99.90
18721;DHT22;9489;50.948;3.114;2024-02-14T03:56:03;10.70;99.90
18721;DHT22;9489;50.948;3.114;2024-02-14T03:58:28;10.70;99.90
18721;DHT22;9489;50.948;3.114;2024-02-14T04:00:54;10.70;99.90
18721;DHT22;9489;50.948;3.114;2024-02-14T04:03:20;10.70;99.90
18721;DHT22;9489;50.948;3.114;2024-02-14T04:05:46;10.70;99.90
18721;DHT22;9489;50.948;3.114;2024-02-14T04:08:13;10.70;99.90
18721;DHT22;9489;50.948;3.114;2024-02-14T04:10:39;10.70;99.90
18721;DHT22;9489;50.948;3.114;2024-02-14T04:13:05;10.70;99.90
18721;DHT22;9489;50.948;3.114;2024-02-14T04:15:31;10.80;99.90
18721;DHT22;9489;50.948;3.114;2024-02-14T04:17:57;10.80;99.90
18721;DHT22;9489;50.948;3.114;2024-02-14T04:20:23;10.80;99.90
18721;DHT22;9489;50.948;3.114;2024-02-14T04:22:49;10.80;99.90
18721;DHT22;9489;50.948;3.114;2024-02-14T04:25:15;10.80;99.90
18721;DHT22;9489;50.948;3.114;2024-02-14T04:27:40;10.80;99.90
18721;DHT22;9489;50.948;3.114;2024-02-14T04:30:06;10.90;99.90
18721;DHT22;9489;50.948;3.114;2024-02-14T04:32:32;10.90;99.90
18721;DHT22;9489;50.948;3.114;2024-02-14T04:34:58;10.90;99.90
18721;DHT22;9489;50.948;3.114;2024-02-14T04:37:24;10.90;99.90
18721;DHT22;9489;50.948;3.114;2024-02-14T04:39:50;10.90;99.90
18721;DHT22;9489;50.948;3.114;2024-02-14T04:42:15;10.90;99.90
18721;DHT22;9489;50.948;3.114;2024-02-14T04:44:41;10.90;99.90
18721;DHT22;9489;50.948;3.114;2024-02-14T04:47:07;10.90;99.90
18721;DHT22;9489;50.948;3.114;2024-02-14T04:49:35;11.00;99.90
18721;DHT22;9489;50.948;3.114;2024-02-14T04:52:01;11.00;99.90
18721;DHT22;9489;50.948;3.114;2024-02-14T04:54:26;11.00;99.90
18721;DHT22;9489;50.948;3.114;2024-02-14T04:56:53;11.00;99.90
18721;DHT22;9489;50.948;3.114;2024-02-14T04:59:19;11.00;99.90
18721;DHT22;9489;50.948;3.114;2024-02-14T05:01:44;11.00;99.90
18721;DHT22;9489;50.948;3.114;2024-02-14T05:04:12;11.00;99.90
18721;DHT22;9489;50.948;3.114;2024-02-14T05:06:38;11.00;99.90
18721;DHT22;9489;50.948;3.114;2024-02-14T05:09:05;11.10;99.90
18721;DHT22;9489;50.948;3.114;2024-02-14T05:11:30;11.10;99.90
18721;DHT22;9489;50.948;3.114;2024-02-14T05:13:56;11.10;99.90
18721;DHT22;9489;50.948;3.114;2024-02-14T05:16:22;11.10;99.90
18721;DHT22;9489;50.948;3.114;2024-02-14T05:18:48;11.10;99.90
18721;DHT22;9489;50.948;3.114;2024-02-14T05:21:14;11.10;99.90
18721;DHT22;9489;50.948;3.114;2024-02-14T05:23:40;11.10;99.90
18721;DHT22;9489;50.948;3.114;2024-02-14T05:26:06;11.10;99.90
18721;DHT22;9489;50.948;3.114;2024-02-14T05:28:32;11.20;99.90
18721;DHT22;9489;50.948;3.114;2024-02-14T05:30:59;11.20;99.90
18721;DHT22;9489;50.948;3.114;2024-02-14T05:33:25;11.20;99.90
18721;DHT22;9489;50.948;3.114;2024-02-14T05:35:52;11.20;99.90
18721;DHT22;9489;50.948;3.114;2024-02-14T05:38:17;11.20;99.90
18721;DHT22;9489;50.948;3.114;2024-02-14T05:40:47;11.20;99.90
18721;DHT22;9489;50.948;3.114;2024-02-14T05:43:13;11.20;99.90
18721;DHT22;9489;50.948;3.114;2024-02-14T05:45:39;11.20;99.90
18721;DHT22;9489;50.948;3.114;2024-02-14T05:48:04;11.20;99.90
18721;DHT22;9489;50.948;3.114;2024-02-14T05:50:30;11.20;99.90
18721;DHT22;9489;50.948;3.114;2024-02-14T05:52:56;11.20;99.90
18721;DHT22;9489;50.948;3.114;2024-02-14T05:55:24;11.20;99.90
18721;DHT22;9489;50.948;3.114;2024-02-14T05:57:51;11.20;99.90
18721;DHT22;9489;50.948;3.114;2024-02-14T06:00:20;11.20;99.90
18721;DHT22;9489;50.948;3.114;2024-02-14T06:02:47;11.20;99.90
18721;DHT22;9489;50.948;3.114;2024-02-14T06:05:13;11.20;99.90
18721;DHT22;9489;50.948;3.114;2024-02-14T06:07:39;11.20;99.90
18721;DHT22;9489;50.948;3.114;2024-02-14T06:10:06;11.20;99.90
18721;DHT22;9489;50.948;3.114;2024-02-14T06:12:32;11.20;99.90
18721;DHT22;9489;50.948;3.114;2024-02-14T06:14:58;11.20;99.90
18721;DHT22;9489;50.948;3.114;2024-02-14T06:17:24;11.20;99.90
18721;DHT22;9489;50.948;3.114;2024-02-14T06:19:52;11.20;99.90
18721;DHT22;9489;50.948;3.114;2024-02-14T06:22:17;11.20;99.90
18721;DHT22;9489;50.948;3.114;2024-02-14T06:24:43;11.20;99.90
18721;DHT22;9489;50.948;3.114;2024-02-14T06:27:08;11.10;99.90
18721;DHT22;9489;50.948;3.114;2024-02-14T06:29:34;11.10;99.90
18721;DHT22;9489;50.948;3.114;2024-02-14T06:32:00;11.10;99.90
18721;DHT22;9489;50.948;3.114;2024-02-14T06:34:26;11.10;99.90
18721;DHT22;9489;50.948;3.114;2024-02-14T06:36:53;11.00;99.90
18721;DHT22;9489;50.948;3.114;2024-02-14T06:39:19;11.10;99.90
18721;DHT22;9489;50.948;3.114;2024-02-14T06:41:46;11.10;99.90
18721;DHT22;9489;50.948;3.114;2024-02-14T06:44:13;11.10;99.90
18721;DHT22;9489;50.948;3.114;2024-02-14T06:46:38;11.10;99.90
18721;DHT22;9489;50.948;3.114;2024-02-14T06:49:04;11.10;99.90
18721;DHT22;9489;50.948;3.114;2024-02-14T06:51:30;11.10;99.90
18721;DHT22;9489;50.948;3.114;2024-02-14T06:53:56;11.10;99.90
18721;DHT22;9489;50.948;3.114;2024-02-14T06:56:22;11.10;99.90
18721;DHT22;9489;50.948;3.114;2024-02-14T06:58:47;11.10;99.90
18721;DHT22;9489;50.948;3.114;2024-02-14T07:01:19;11.10;99.90
18721;DHT22;9489;50.948;3.114;2024-02-14T07:03:47;11.10;99.90
18721;DHT22;9489;50.948;3.114;2024-02-14T07:06:14;11.10;99.90
18721;DHT22;9489;50.948;3.114;2024-02-14T07:08:42;11.10;99.90
18721;DHT22;9489;50.948;3.114;2024-02-14T07:11:08;11.10;99.90
18721;DHT22;9489;50.948;3.114;2024-02-14T07:13:34;11.20;99.90
18721;DHT22;9489;50.948;3.114;2024-02-14T07:16:00;11.10;99.90
18721;DHT22;9489;50.948;3.114;2024-02-14T07:18:25;11.20;99.90
18721;DHT22;9489;50.948;3.114;2024-02-14T07:20:51;11.20;99.90
18721;DHT22;9489;50.948;3.114;2024-02-14T07:23:18;11.20;99.90
18721;DHT22;9489;50.948;3.114;2024-02-14T07:25:44;11.10;99.90
18721;DHT22;9489;50.948;3.114;2024-02-14T07:28:10;11.10;99.90
18721;DHT22;9489;50.948;3.114;2024-02-14T07:30:36;11.10;99.90
18721;DHT22;9489;50.948;3.114;2024-02-14T07:33:02;11.10;99.90
18721;DHT22;9489;50.948;3.114;2024-02-14T07:35:28;11.10;99.90
18721;DHT22;9489;50.948;3.114;2024-02-14T07:37:54;11.10;99.90
18721;DHT22;9489;50.948;3.114;2024-02-14T07:40:21;11.00;99.90
18721;DHT22;9489;50.948;3.114;2024-02-14T07:42:47;11.00;99.90
18721;DHT22;9489;50.948;3.114;2024-02-14T07:45:13;11.00;99.90
18721;DHT22;9489;50.948;3.114;2024-02-14T07:47:39;11.10;99.90
18721;DHT22;9489;50.948;3.114;2024-02-14T07:50:09;11.10;99.90
18721;DHT22;9489;50.948;3.114;2024-02-14T07:52:34;11.10;99.90
18721;DHT22;9489;50.948;3.114;2024-02-14T07:55:01;11.10;99.90
18721;DHT22;9489;50.948;3.114;2024-02-14T07:57:27;11.10;99.90
18721;DHT22;9489;50.948;3.114;2024-02-14T07:59:53;11.10;99.90
18721;DHT22;9489;50.948;3.114;2024-02-14T08:02:19;11.10;99.90
18721;DHT22;9489;50.948;3.114;2024-02-14T08:04:45;11.10;99.90
18721;DHT22;9489;50.948;3.114;2024-02-14T08:07:11;11.10;99.90
18721;DHT22;9489;50.948;3.114;2024-02-14T08:09:37;11.20;99.90
18721;DHT22;9489;50.948;3.114;2024-02-14T08:12:04;11.20;99.90
18721;DHT22;9489;50.948;3.114;2024-02-14T08:14:31;11.20;99.90
18721;DHT22;9489;50.948;3.114;2024-02-14T08:16:56;11.20;99.90
18721;DHT22;9489;50.948;3.114;2024-02-14T08:19:22;11.30;99.90
18721;DHT22;9489;50.948;3.114;2024-02-14T08:21:48;11.30;99.90
18721;DHT22;9489;50.948;3.114;2024-02-14T08:24:14;11.30;99.90
18721;DHT22;9489;50.948;3.114;2024-02-14T08:26:39;11.30;99.90
18721;DHT22;9489;50.948;3.114;2024-02-14T08:29:05;11.40;99.90
18721;DHT22;9489;50.948;3.114;2024-02-14T08:31:31;11.40;99.90
18721;DHT22;9489;50.948;3.114;2024-02-14T08:33:58;11.40;99.90
18721;DHT22;9489;50.948;3.114;2024-02-14T08:36:24;11.40;99.90
18721;DHT22;9489;50.948;3.114;2024-02-14T08:38:50;11.40;99.90
18721;DHT22;9489;50.948;3.114;2024-02-14T08:41:15;11.40;99.90
18721;DHT22;9489;50.948;3.114;2024-02-14T08:43:41;11.40;99.90
18721;DHT22;9489;50.948;3.114;2024-02-14T08:46:10;11.40;99.90
18721;DHT22;9489;50.948;3.114;2024-02-14T08:48:37;11.40;99.90
18721;DHT22;9489;50.948;3.114;2024-02-14T08:51:07;11.40;99.90
18721;DHT22;9489;50.948;3.114;2024-02-14T08:53:35;11.40;99.90
18721;DHT22;9489;50.948;3.114;2024-02-14T08:56:01;11.40;99.90
18721;DHT22;9489;50.948;3.114;2024-02-14T08:58:26;11.50;99.90
18721;DHT22;9489;50.948;3.114;2024-02-14T09:00:52;11.40;99.90
18721;DHT22;9489;50.948;3.114;2024-02-14T09:03:19;11.40;99.90
18721;DHT22;9489;50.948;3.114;2024-02-14T09:05:45;11.50;99.90
18721;DHT22;9489;50.948;3.114;2024-02-14T09:08:12;11.50;99.90
18721;DHT22;9489;50.948;3.114;2024-02-14T09:10:38;11.50;99.90
18721;DHT22;9489;50.948;3.114;2024-02-14T09:13:04;11.50;99.90
18721;DHT22;9489;50.948;3.114;2024-02-14T09:15:30;11.50;99.90
18721;DHT22;9489;50.948;3.114;2024-02-14T09:17:56;11.60;99.90
18721;DHT22;9489;50.948;3.114;2024-02-14T09:20:22;11.50;99.90
18721;DHT22;9489;50.948;3.114;2024-02-14T09:22:48;11.50;99.90
18721;DHT22;9489;50.948;3.114;2024-02-14T09:25:14;11.60;99.90
18721;DHT22;9489;50.948;3.114;2024-02-14T09:27:40;11.60;99.90
18721;DHT22;9489;50.948;3.114;2024-02-14T09:30:07;11.70;99.90
18721;DHT22;9489;50.948;3.114;2024-02-14T09:32:33;11.70;99.90
18721;DHT22;9489;50.948;3.114;2024-02-14T09:35:01;11.70;99.90
18721;DHT22;9489;50.948;3.114;2024-02-14T09:37:30;11.80;99.90
18721;DHT22;9489;50.948;3.114;2024-02-14T09:39:55;11.80;99.90
18721;DHT22;9489;50.948;3.114;2024-02-14T09:42:28;11.80;99.90
18721;DHT22;9489;50.948;3.114;2024-02-14T09:44:58;11.80;99.90
18721;DHT22;9489;50.948;3.114;2024-02-14T09:47:24;11.80;99.90
18721;DHT22;9489;50.948;3.114;2024-02-14T09:49:52;11.90;99.90
18721;DHT22;9489;50.948;3.114;2024-02-14T09:52:19;11.90;99.90
18721;DHT22;9489;50.948;3.114;2024-02-14T09:54:46;11.90;99.90
18721;DHT22;9489;50.948;3.114;2024-02-14T09:57:13;11.90;99.90
18721;DHT22;9489;50.948;3.114;2024-02-14T09:59:42;12.00;99.90
18721;DHT22;9489;50.948;3.114;2024-02-14T10:02:09;12.00;99.90
18721;DHT22;9489;50.948;3.114;2024-02-14T10:04:36;12.10;99.90
18721;DHT22;9489;50.948;3.114;2024-02-14T10:07:04;12.10;99.90
18721;DHT22;9489;50.948;3.114;2024-02-14T10:09:30;12.10;99.90
18721;DHT22;9489;50.948;3.114;2024-02-14T10:11:56;12.10;99.90
18721;DHT22;9489;50.948;3.114;2024-02-14T10:14:23;12.20;99.90
18721;DHT22;9489;50.948;3.114;2024-02-14T10:16:49;12.20;99.90
18721;DHT22;9489;50.948;3.114;2024-02-14T10:19:18;12.20;99.90
18721;DHT22;9489;50.948;3.114;2024-02-14T10:21:54;12.20;99.90
18721;DHT22;9489;50.948;3.114;2024-02-14T10:24:21;12.20;99.90
18721;DHT22;9489;50.948;3.114;2024-02-14T10:26:47;12.20;99.90
18721;DHT22;9489;50.948;3.114;2024-02-14T10:29:13;12.30;99.90
18721;DHT22;9489;50.948;3.114;2024-02-14T10:31:40;12.30;99.90
18721;DHT22;9489;50.948;3.114;2024-02-14T10:34:06;12.30;99.90
18721;DHT22;9489;50.948;3.114;2024-02-14T10:36:33;12.30;99.90
18721;DHT22;9489;50.948;3.114;2024-02-14T10:39:01;12.40;99.90
18721;DHT22;9489;50.948;3.114;2024-02-14T10:41:30;12.40;99.90
18721;DHT22;9489;50.948;3.114;2024-02-14T10:44:02;12.40;99.90
18721;DHT22;9489;50.948;3.114;2024-02-14T10:46:32;12.40;99.90
18721;DHT22;9489;50.948;3.114;2024-02-14T10:49:02;12.50;99.90
18721;DHT22;9489;50.948;3.114;2024-02-14T10:51:31;12.40;99.90
18721;DHT22;9489;50.948;3.114;2024-02-14T10:53:57;12.50;99.90
18721;DHT22;9489;50.948;3.114;2024-02-14T10:56:28;12.50;99.90
18721;DHT22;9489;50.948;3.114;2024-02-14T10:58:56;12.50;99.90
18721;DHT22;9489;50.948;3.114;2024-02-14T11:01:26;12.50;99.90
18721;DHT22;9489;50.948;3.114;2024-02-14T11:03:56;12.60;99.90
18721;DHT22;9489;50.948;3.114;2024-02-14T11:06:23;12.60;99.90
18721;DHT22;9489;50.948;3.114;2024-02-14T11:09:03;12.60;99.90
18721;DHT22;9489;50.948;3.114;2024-02-14T11:11:33;12.60;99.90
18721;DHT22;9489;50.948;3.114;2024-02-14T11:13:59;12.60;99.90
18721;DHT22;9489;50.948;3.114;2024-02-14T11:16:26;12.70;99.90
18721;DHT22;9489;50.948;3.114;2024-02-14T11:19:11;12.70;99.90
18721;DHT22;9489;50.948;3.114;2024-02-14T11:21:42;12.70;99.90
18721;DHT22;9489;50.948;3.114;2024-02-14T11:24:12;12.70;99.90
18721;DHT22;9489;50.948;3.114;2024-02-14T11:26:48;12.70;99.90
18721;DHT22;9489;50.948;3.114;2024-02-14T11:29:17;12.80;99.90
18721;DHT22;9489;50.948;3.114;2024-02-14T11:31:47;12.80;99.90
18721;DHT22;9489;50.948;3.114;2024-02-14T11:34:16;12.80;99.90
18721;DHT22;9489;50.948;3.114;2024-02-14T11:36:43;12.90;99.90
18721;DHT22;9489;50.948;3.114;2024-02-14T11:39:10;12.80;99.90
18721;DHT22;9489;50.948;3.114;2024-02-14T11:41:38;12.90;99.90
18721;DHT22;9489;50.948;3.114;2024-02-14T11:44:04;13.00;99.90
18721;DHT22;9489;50.948;3.114;2024-02-14T11:46:34;13.00;99.90
18721;DHT22;9489;50.948;3.114;2024-02-14T11:49:01;13.00;99.90
18721;DHT22;9489;50.948;3.114;2024-02-14T11:51:33;13.00;99.90
18721;DHT22;9489;50.948;3.114;2024-02-14T11:54:01;13.10;99.90
18721;DHT22;9489;50.948;3.114;2024-02-14T11:56:33;13.00;99.90
18721;DHT22;9489;50.948;3.114;2024-02-14T11:59:00;13.00;99.90
18721;DHT22;9489;50.948;3.114;2024-02-14T12:01:38;13.00;99.90
18721;DHT22;9489;50.948;3.114;2024-02-14T12:04:08;13.00;99.90
18721;DHT22;9489;50.948;3.114;2024-02-14T12:06:35;13.00;99.90
18721;DHT22;9489;50.948;3.114;2024-02-14T12:09:04;13.00;99.90
18721;DHT22;9489;50.948;3.114;2024-02-14T12:11:37;13.00;99.90
18721;DHT22;9489;50.948;3.114;2024-02-14T12:14:05;13.00;99.90
18721;DHT22;9489;50.948;3.114;2024-02-14T12:16:31;13.00;99.90
18721;DHT22;9489;50.948;3.114;2024-02-14T12:19:14;13.00;99.90
18721;DHT22;9489;50.948;3.114;2024-02-14T12:21:41;13.00;99.90
18721;DHT22;9489;50.948;3.114;2024-02-14T12:24:11;13.00;99.90
18721;DHT22;9489;50.948;3.114;2024-02-14T12:26:39;13.00;99.90
18721;DHT22;9489;50.948;3.114;2024-02-14T12:29:06;13.00;99.90
18721;DHT22;9489;50.948;3.114;2024-02-14T12:31:33;13.10;99.90
18721;DHT22;9489;50.948;3.114;2024-02-14T12:34:00;13.10;99.90
18721;DHT22;9489;50.948;3.114;2024-02-14T12:36:31;13.10;99.90
18721;DHT22;9489;50.948;3.114;2024-02-14T12:38:58;13.10;99.90
18721;DHT22;9489;50.948;3.114;2024-02-14T12:41:24;13.10;99.90
18721;DHT22;9489;50.948;3.114;2024-02-14T12:43:52;13.10;99.90
18721;DHT22;9489;50.948;3.114;2024-02-14T12:46:17;13.10;99.90
18721;DHT22;9489;50.948;3.114;2024-02-14T12:48:43;13.10;99.90
18721;DHT22;9489;50.948;3.114;2024-02-14T12:51:10;13.10;99.90
18721;DHT22;9489;50.948;3.114;2024-02-14T12:53:35;13.10;99.90
18721;DHT22;9489;50.948;3.114;2024-02-14T12:56:01;13.20;99.90
18721;DHT22;9489;50.948;3.114;2024-02-14T12:58:27;13.20;99.90
18721;DHT22;9489;50.948;3.114;2024-02-14T13:00:53;13.20;99.90
18721;DHT22;9489;50.948;3.114;2024-02-14T13:03:19;13.20;99.90
18721;DHT22;9489;50.948;3.114;2024-02-14T13:05:45;13.20;99.90
18721;DHT22;9489;50.948;3.114;2024-02-14T13:08:12;13.20;99.90
18721;DHT22;9489;50.948;3.114;2024-02-14T13:10:38;13.30;99.90
18721;DHT22;9489;50.948;3.114;2024-02-14T13:13:04;13.30;99.90
18721;DHT22;9489;50.948;3.114;2024-02-14T13:15:30;13.30;99.90
18721;DHT22;9489;50.948;3.114;2024-02-14T13:17:55;13.30;99.90
18721;DHT22;9489;50.948;3.114;2024-02-14T13:20:24;13.40;99.90
18721;DHT22;9489;50.948;3.114;2024-02-14T13:22:49;13.40;99.90
18721;DHT22;9489;50.948;3.114;2024-02-14T13:25:15;13.40;99.90
18721;DHT22;9489;50.948;3.114;2024-02-14T13:27:41;13.50;99.90
18721;DHT22;9489;50.948;3.114;2024-02-14T13:30:08;13.50;99.90
18721;DHT22;9489;50.948;3.114;2024-02-14T13:32:34;13.50;99.90
18721;DHT22;9489;50.948;3.114;2024-02-14T13:34:59;13.50;99.90
18721;DHT22;9489;50.948;3.114;2024-02-14T13:37:25;13.50;99.90
18721;DHT22;9489;50.948;3.114;2024-02-14T13:39:51;13.50;99.90
18721;DHT22;9489;50.948;3.114;2024-02-14T13:42:17;13.50;99.90
18721;DHT22;9489;50.948;3.114;2024-02-14T13:44:42;13.50;99.90
18721;DHT22;9489;50.948;3.114;2024-02-14T13:47:09;13.50;99.90
18721;DHT22;9489;50.948;3.114;2024-02-14T13:49:34;13.50;99.90
18721;DHT22;9489;50.948;3.114;2024-02-14T13:52:00;13.50;99.90
18721;DHT22;9489;50.948;3.114;2024-02-14T13:54:26;13.50;99.90
18721;DHT22;9489;50.948;3.114;2024-02-14T13:56:51;13.50;99.90
18721;DHT22;9489;50.948;3.114;2024-02-14T13:59:17;13.50;99.90
18721;DHT22;9489;50.948;3.114;2024-02-14T14:01:45;13.50;99.90
18721;DHT22;9489;50.948;3.114;2024-02-14T14:04:11;13.60;99.90
18721;DHT22;9489;50.948;3.114;2024-02-14T14:06:38;13.60;99.90
18721;DHT22;9489;50.948;3.114;2024-02-14T14:09:05;13.60;99.90
18721;DHT22;9489;50.948;3.114;2024-02-14T14:11:33;13.60;99.90
18721;DHT22;9489;50.948;3.114;2024-02-14T14:13:59;13.70;99.90
18721;DHT22;9489;50.948;3.114;2024-02-14T14:16:26;13.70;99.90
18721;DHT22;9489;50.948;3.114;2024-02-14T14:18:51;13.80;99.90
18721;DHT22;9489;50.948;3.114;2024-02-14T14:21:17;13.70;99.90
18721;DHT22;9489;50.948;3.114;2024-02-14T14:23:43;13.70;99.90
18721;DHT22;9489;50.948;3.114;2024-02-14T14:26:09;13.80;99.90
18721;DHT22;9489;50.948;3.114;2024-02-14T14:28:35;13.90;99.90
18721;DHT22;9489;50.948;3.114;2024-02-14T14:31:00;14.00;99.90
18721;DHT22;9489;50.948;3.114;2024-02-14T14:33:27;14.00;99.90
18721;DHT22;9489;50.948;3.114;2024-02-14T14:35:53;14.10;99.90
18721;DHT22;9489;50.948;3.114;2024-02-14T14:38:20;14.20;99.90
18721;DHT22;9489;50.948;3.114;2024-02-14T14:40:47;14.20;99.90
18721;DHT22;9489;50.948;3.114;2024-02-14T14:43:13;14.30;99.90
18721;DHT22;9489;50.948;3.114;2024-02-14T14:45:39;14.30;99.90
18721;DHT22;9489;50.948;3.114;2024-02-14T14:48:06;14.20;99.90
18721;DHT22;9489;50.948;3.114;2024-02-14T14:50:34;14.20;99.90
18721;DHT22;9489;50.948;3.114;2024-02-14T14:53:00;14.10;99.90
18721;DHT22;9489;50.948;3.114;2024-02-14T14:55:39;14.10;99.90
18721;DHT22;9489;50.948;3.114;2024-02-14T14:58:13;14.10;99.90
18721;DHT22;9489;50.948;3.114;2024-02-14T15:00:39;14.00;99.90
18721;DHT22;9489;50.948;3.114;2024-02-14T15:03:05;13.90;99.90
18721;DHT22;9489;50.948;3.114;2024-02-14T15:05:30;14.00;99.90
18721;DHT22;9489;50.948;3.114;2024-02-14T15:07:56;14.00;99.90
18721;DHT22;9489;50.948;3.114;2024-02-14T15:10:22;13.90;99.90
18721;DHT22;9489;50.948;3.114;2024-02-14T15:12:48;13.90;99.90
18721;DHT22;9489;50.948;3.114;2024-02-14T15:15:14;13.90;99.90
18721;DHT22;9489;50.948;3.114;2024-02-14T15:17:39;13.90;99.90
18721;DHT22;9489;50.948;3.114;2024-02-14T15:20:06;13.90;99.90
18721;DHT22;9489;50.948;3.114;2024-02-14T15:22:32;13.80;99.90
18721;DHT22;9489;50.948;3.114;2024-02-14T15:24:58;13.90;99.90
18721;DHT22;9489;50.948;3.114;2024-02-14T15:27:23;13.90;99.90
18721;DHT22;9489;50.948;3.114;2024-02-14T15:29:52;13.90;99.90
18721;DHT22;9489;50.948;3.114;2024-02-14T15:32:36;13.90;99.90
18721;DHT22;9489;50.948;3.114;2024-02-14T15:35:21;13.90;99.90
18721;DHT22;9489;50.948;3.114;2024-02-14T15:37:46;13.90;99.90
18721;DHT22;9489;50.948;3.114;2024-02-14T15:40:17;13.90;99.90
18721;DHT22;9489;50.948;3.114;2024-02-14T15:42:43;13.90;99.90
18721;DHT22;9489;50.948;3.114;2024-02-14T15:45:09;13.90;99.90